Aeroporto :
LOGIN :

Iscrizione | Disclaimer

   EN    FR    IT 

 










Sommario :    VFR   VFR Marginale   IFR   IFR Intensivo   IFR Molto Intensivo
Visibilità : 
Base nubi : 
>= 8 km
>= 3000ft
5 / 8 km
1000 / 3000 ft
1500m / 5 km
500 / 1000 ft
800 / 1500m
200 / 500 ft
< 800m
< 200 ft
Simboli :   Temporali  Nebbia  Neve Forte  Precipitazioni Forti  Vento > 20 kt
SIGMETs :   Varie  Temporali  Ghiacco  Turbolenza  Onda orograficha  Ceneri Vulcaniche






- Altitudine del aeroporto : 913 ft


LFSX - Luxeuil

ULTIMO METAR :
  • 250700Z AUTO 23010KT 200V330 9999 -RA ////// 07/05 Q1010

METARs OBSOLETI :
  • 250630Z AUTO 23011KT 9999 OVC018 07/04 Q1010
  • 250600Z AUTO 22015KT 9999 OVC021 07/05 Q1011
  • 250530Z AUTO 23010KT 9000 -RA OVC019 07/05 Q1011
  • 250500Z AUTO 23013KT 9999 OVC019 07/04 Q1011
  • 250430Z AUTO 23012KT 9999 OVC019 07/04 Q1011

TAF TAF LFSX
Valido dal 25 a 06 ore il 26 a 03 ore UTC


250530Z 2506/2603 24010G20KT 9999 OVC019
BECMG 2506/2508 24015G30KT 4900 RA OVC010
BECMG 2512/2514 8000 NSW NSC
TEMPO 2514/2522 4000 SHRA BKN020TCU
PROB40
TEMPO 2515/2519 2000 TSGS BKN015CB
TEMPO 2523/2603 2000 SHSN BKN010TCU



MetMap, La meteo Aeronautica in un colpo d'occhio ! - Copyright ORBIFLY Dicembre 2007 - Disclaimer

ORBIFLY MET'MAP TEAM :

Programmazione e sviluppo : Alexandra Zaïnal
Concezione : Baudouin d'Aumeries
Aiuto per la programmazione : Marc-Olivier Méhu
Supporto tecnico e logistico : Manuel Goepfert
Aiuto per la traduzione : Arnaldo La Scala

Contatto : metmap@orbifly.com




FONTI E CREDITI :

   NOAA